sensor_id;sensor_type;location;lat;lon;timestamp;P1;durP1;ratioP1;P2;durP2;ratioP2
32876;SDS011;19226;51.600;8.034;2023-04-30T00:01:58;13.93;;;6.93;;
32876;SDS011;19226;51.600;8.034;2023-04-30T00:04:43;9.30;;;7.03;;
32876;SDS011;19226;51.600;8.034;2023-04-30T00:07:29;10.35;;;7.75;;
32876;SDS011;19226;51.600;8.034;2023-04-30T00:10:14;8.68;;;7.20;;
32876;SDS011;19226;51.600;8.034;2023-04-30T00:12:59;9.68;;;7.50;;
32876;SDS011;19226;51.600;8.034;2023-04-30T00:15:44;10.85;;;6.82;;
32876;SDS011;19226;51.600;8.034;2023-04-30T00:18:28;12.13;;;7.07;;
32876;SDS011;19226;51.600;8.034;2023-04-30T00:21:14;10.30;;;7.45;;
32876;SDS011;19226;51.600;8.034;2023-04-30T00:23:59;16.33;;;7.55;;
32876;SDS011;19226;51.600;8.034;2023-04-30T00:26:44;12.07;;;6.68;;
32876;SDS011;19226;51.600;8.034;2023-04-30T00:29:28;11.13;;;6.70;;
32876;SDS011;19226;51.600;8.034;2023-04-30T00:32:13;16.10;;;7.03;;
32876;SDS011;19226;51.600;8.034;2023-04-30T00:34:57;11.52;;;7.50;;
32876;SDS011;19226;51.600;8.034;2023-04-30T00:37:42;18.33;;;7.90;;
32876;SDS011;19226;51.600;8.034;2023-04-30T00:40:26;10.68;;;6.80;;
32876;SDS011;19226;51.600;8.034;2023-04-30T00:43:11;10.32;;;7.82;;
32876;SDS011;19226;51.600;8.034;2023-04-30T00:45:56;14.38;;;7.50;;
32876;SDS011;19226;51.600;8.034;2023-04-30T00:48:41;8.75;;;7.20;;
32876;SDS011;19226;51.600;8.034;2023-04-30T00:51:26;10.13;;;7.43;;
32876;SDS011;19226;51.600;8.034;2023-04-30T00:54:11;11.80;;;7.28;;
32876;SDS011;19226;51.600;8.034;2023-04-30T00:56:57;11.35;;;7.10;;
32876;SDS011;19226;51.600;8.034;2023-04-30T00:59:41;8.82;;;6.65;;
32876;SDS011;19226;51.600;8.034;2023-04-30T01:02:26;12.02;;;7.60;;
32876;SDS011;19226;51.600;8.034;2023-04-30T01:05:10;11.82;;;8.50;;
32876;SDS011;19226;51.600;8.034;2023-04-30T01:07:55;14.90;;;8.45;;
32876;SDS011;19226;51.600;8.034;2023-04-30T01:10:43;13.40;;;8.23;;
32876;SDS011;19226;51.600;8.034;2023-04-30T01:13:44;18.50;;;8.18;;
32876;SDS011;19226;51.600;8.034;2023-04-30T01:16:42;12.60;;;8.32;;
32876;SDS011;19226;51.600;8.034;2023-04-30T01:19:44;14.40;;;7.43;;
32876;SDS011;19226;51.600;8.034;2023-04-30T01:22:31;9.70;;;7.40;;
32876;SDS011;19226;51.600;8.034;2023-04-30T01:28:15;13.90;;;7.88;;
32876;SDS011;19226;51.600;8.034;2023-04-30T01:31:02;19.15;;;8.13;;
32876;SDS011;19226;51.600;8.034;2023-04-30T01:33:47;12.57;;;8.60;;
32876;SDS011;19226;51.600;8.034;2023-04-30T01:42:41;12.30;;;8.85;;
32876;SDS011;19226;51.600;8.034;2023-04-30T01:45:49;11.55;;;7.97;;
32876;SDS011;19226;51.600;8.034;2023-04-30T01:51:39;11.38;;;8.23;;
32876;SDS011;19226;51.600;8.034;2023-04-30T01:54:26;11.32;;;8.02;;
32876;SDS011;19226;51.600;8.034;2023-04-30T01:57:25;13.02;;;8.73;;
32876;SDS011;19226;51.600;8.034;2023-04-30T02:00:15;21.23;;;9.98;;
32876;SDS011;19226;51.600;8.034;2023-04-30T02:03:00;18.92;;;9.65;;
32876;SDS011;19226;51.600;8.034;2023-04-30T02:05:47;10.30;;;7.35;;
32876;SDS011;19226;51.600;8.034;2023-04-30T02:08:32;13.02;;;8.50;;
32876;SDS011;19226;51.600;8.034;2023-04-30T02:11:17;11.65;;;8.25;;
32876;SDS011;19226;51.600;8.034;2023-04-30T02:14:02;16.17;;;8.20;;
32876;SDS011;19226;51.600;8.034;2023-04-30T02:16:46;11.25;;;8.35;;
32876;SDS011;19226;51.600;8.034;2023-04-30T02:19:31;11.90;;;8.27;;
32876;SDS011;19226;51.600;8.034;2023-04-30T02:22:16;18.50;;;9.32;;
32876;SDS011;19226;51.600;8.034;2023-04-30T02:25:01;12.88;;;9.32;;
32876;SDS011;19226;51.600;8.034;2023-04-30T02:27:46;14.13;;;8.77;;
32876;SDS011;19226;51.600;8.034;2023-04-30T02:30:30;15.32;;;8.35;;
32876;SDS011;19226;51.600;8.034;2023-04-30T02:33:15;18.02;;;9.07;;
32876;SDS011;19226;51.600;8.034;2023-04-30T02:36:00;14.70;;;9.70;;
32876;SDS011;19226;51.600;8.034;2023-04-30T02:38:44;20.65;;;9.25;;
32876;SDS011;19226;51.600;8.034;2023-04-30T02:41:29;15.27;;;8.65;;
32876;SDS011;19226;51.600;8.034;2023-04-30T02:44:14;12.23;;;8.68;;
32876;SDS011;19226;51.600;8.034;2023-04-30T02:46:59;11.98;;;8.73;;
32876;SDS011;19226;51.600;8.034;2023-04-30T02:49:45;16.45;;;9.63;;
32876;SDS011;19226;51.600;8.034;2023-04-30T02:52:30;13.43;;;9.82;;
32876;SDS011;19226;51.600;8.034;2023-04-30T02:55:15;12.10;;;8.15;;
32876;SDS011;19226;51.600;8.034;2023-04-30T02:58:00;12.07;;;8.27;;
32876;SDS011;19226;51.600;8.034;2023-04-30T03:00:45;16.83;;;7.78;;
32876;SDS011;19226;51.600;8.034;2023-04-30T03:03:29;10.68;;;8.00;;
32876;SDS011;19226;51.600;8.034;2023-04-30T03:06:14;11.30;;;8.18;;
32876;SDS011;19226;51.600;8.034;2023-04-30T03:08:59;12.90;;;8.05;;
32876;SDS011;19226;51.600;8.034;2023-04-30T03:11:44;12.23;;;7.93;;
32876;SDS011;19226;51.600;8.034;2023-04-30T03:14:28;11.95;;;7.68;;
32876;SDS011;19226;51.600;8.034;2023-04-30T03:17:13;14.38;;;7.93;;
32876;SDS011;19226;51.600;8.034;2023-04-30T03:19:57;16.88;;;8.90;;
32876;SDS011;19226;51.600;8.034;2023-04-30T03:22:42;12.20;;;8.43;;
32876;SDS011;19226;51.600;8.034;2023-04-30T03:25:27;16.88;;;8.90;;
32876;SDS011;19226;51.600;8.034;2023-04-30T03:28:13;14.02;;;8.40;;
32876;SDS011;19226;51.600;8.034;2023-04-30T03:30:58;12.77;;;9.05;;
32876;SDS011;19226;51.600;8.034;2023-04-30T03:33:43;18.45;;;8.73;;
32876;SDS011;19226;51.600;8.034;2023-04-30T03:36:28;11.23;;;8.57;;
32876;SDS011;19226;51.600;8.034;2023-04-30T03:39:13;14.73;;;9.85;;
32876;SDS011;19226;51.600;8.034;2023-04-30T03:41:59;17.23;;;10.18;;
32876;SDS011;19226;51.600;8.034;2023-04-30T03:44:46;14.65;;;9.60;;
32876;SDS011;19226;51.600;8.034;2023-04-30T03:47:31;21.27;;;9.75;;
32876;SDS011;19226;51.600;8.034;2023-04-30T03:50:16;14.70;;;10.32;;
32876;SDS011;19226;51.600;8.034;2023-04-30T03:53:01;14.50;;;9.45;;
32876;SDS011;19226;51.600;8.034;2023-04-30T03:55:47;11.60;;;8.60;;
32876;SDS011;19226;51.600;8.034;2023-04-30T03:58:32;16.67;;;9.15;;
32876;SDS011;19226;51.600;8.034;2023-04-30T04:01:17;14.45;;;9.57;;
32876;SDS011;19226;51.600;8.034;2023-04-30T04:04:01;16.73;;;10.00;;
32876;SDS011;19226;51.600;8.034;2023-04-30T04:06:46;17.55;;;10.73;;
32876;SDS011;19226;51.600;8.034;2023-04-30T04:09:31;17.60;;;9.57;;
32876;SDS011;19226;51.600;8.034;2023-04-30T04:12:16;14.43;;;9.05;;
32876;SDS011;19226;51.600;8.034;2023-04-30T04:15:00;17.48;;;8.60;;
32876;SDS011;19226;51.600;8.034;2023-04-30T04:17:46;14.10;;;8.48;;
32876;SDS011;19226;51.600;8.034;2023-04-30T04:20:31;12.10;;;8.40;;
32876;SDS011;19226;51.600;8.034;2023-04-30T04:23:15;13.45;;;9.10;;
32876;SDS011;19226;51.600;8.034;2023-04-30T04:26:00;10.38;;;7.75;;
32876;SDS011;19226;51.600;8.034;2023-04-30T04:28:44;9.18;;;8.02;;
32876;SDS011;19226;51.600;8.034;2023-04-30T04:31:31;11.90;;;8.25;;
32876;SDS011;19226;51.600;8.034;2023-04-30T04:34:16;11.68;;;8.13;;
32876;SDS011;19226;51.600;8.034;2023-04-30T04:37:01;17.73;;;9.25;;
32876;SDS011;19226;51.600;8.034;2023-04-30T04:39:46;19.20;;;10.02;;
32876;SDS011;19226;51.600;8.034;2023-04-30T04:42:30;21.90;;;10.32;;
32876;SDS011;19226;51.600;8.034;2023-04-30T04:45:15;20.25;;;10.13;;
32876;SDS011;19226;51.600;8.034;2023-04-30T04:48:00;17.10;;;10.75;;
32876;SDS011;19226;51.600;8.034;2023-04-30T04:50:45;17.50;;;10.90;;
32876;SDS011;19226;51.600;8.034;2023-04-30T04:53:29;22.02;;;11.20;;
32876;SDS011;19226;51.600;8.034;2023-04-30T04:56:14;13.02;;;10.07;;
32876;SDS011;19226;51.600;8.034;2023-04-30T04:58:59;23.55;;;11.10;;
32876;SDS011;19226;51.600;8.034;2023-04-30T05:01:44;19.02;;;11.43;;
32876;SDS011;19226;51.600;8.034;2023-04-30T05:04:29;22.15;;;11.18;;
32876;SDS011;19226;51.600;8.034;2023-04-30T05:07:13;15.30;;;11.05;;
32876;SDS011;19226;51.600;8.034;2023-04-30T05:09:58;17.15;;;12.25;;
32876;SDS011;19226;51.600;8.034;2023-04-30T05:12:43;21.35;;;12.75;;
32876;SDS011;19226;51.600;8.034;2023-04-30T05:15:28;22.85;;;11.98;;
32876;SDS011;19226;51.600;8.034;2023-04-30T05:18:12;22.45;;;13.48;;
32876;SDS011;19226;51.600;8.034;2023-04-30T05:20:57;24.35;;;12.43;;
32876;SDS011;19226;51.600;8.034;2023-04-30T05:23:42;25.00;;;14.32;;
32876;SDS011;19226;51.600;8.034;2023-04-30T05:26:28;29.02;;;14.43;;
32876;SDS011;19226;51.600;8.034;2023-04-30T05:29:12;29.30;;;15.82;;
32876;SDS011;19226;51.600;8.034;2023-04-30T05:31:57;24.67;;;14.68;;
32876;SDS011;19226;51.600;8.034;2023-04-30T05:34:42;23.00;;;14.98;;
32876;SDS011;19226;51.600;8.034;2023-04-30T05:37:26;23.30;;;15.85;;
32876;SDS011;19226;51.600;8.034;2023-04-30T05:40:11;27.45;;;14.88;;
32876;SDS011;19226;51.600;8.034;2023-04-30T05:42:56;20.52;;;14.70;;
32876;SDS011;19226;51.600;8.034;2023-04-30T05:45:41;22.95;;;14.77;;
32876;SDS011;19226;51.600;8.034;2023-04-30T05:48:26;29.02;;;14.75;;
32876;SDS011;19226;51.600;8.034;2023-04-30T05:51:10;21.55;;;14.65;;
32876;SDS011;19226;51.600;8.034;2023-04-30T05:53:55;22.05;;;14.48;;
32876;SDS011;19226;51.600;8.034;2023-04-30T05:56:40;22.95;;;15.18;;
32876;SDS011;19226;51.600;8.034;2023-04-30T05:59:24;21.55;;;14.27;;
32876;SDS011;19226;51.600;8.034;2023-04-30T06:02:09;25.23;;;14.43;;
32876;SDS011;19226;51.600;8.034;2023-04-30T06:04:53;24.55;;;15.13;;
32876;SDS011;19226;51.600;8.034;2023-04-30T06:07:39;20.67;;;13.80;;
32876;SDS011;19226;51.600;8.034;2023-04-30T06:10:24;29.30;;;12.93;;
32876;SDS011;19226;51.600;8.034;2023-04-30T06:13:08;22.00;;;14.43;;
32876;SDS011;19226;51.600;8.034;2023-04-30T06:15:53;20.00;;;12.63;;
32876;SDS011;19226;51.600;8.034;2023-04-30T06:18:37;19.95;;;12.30;;
32876;SDS011;19226;51.600;8.034;2023-04-30T06:21:22;22.42;;;12.80;;
32876;SDS011;19226;51.600;8.034;2023-04-30T06:24:09;23.83;;;13.75;;
32876;SDS011;19226;51.600;8.034;2023-04-30T06:26:54;19.38;;;11.82;;
32876;SDS011;19226;51.600;8.034;2023-04-30T06:29:38;19.13;;;11.57;;
32876;SDS011;19226;51.600;8.034;2023-04-30T06:32:23;26.83;;;11.52;;
32876;SDS011;19226;51.600;8.034;2023-04-30T06:35:07;18.25;;;11.15;;
32876;SDS011;19226;51.600;8.034;2023-04-30T06:37:52;14.43;;;10.63;;
32876;SDS011;19226;51.600;8.034;2023-04-30T06:40:36;15.88;;;9.75;;
32876;SDS011;19226;51.600;8.034;2023-04-30T06:43:21;20.58;;;10.75;;
32876;SDS011;19226;51.600;8.034;2023-04-30T06:46:06;16.05;;;10.27;;
32876;SDS011;19226;51.600;8.034;2023-04-30T06:48:50;15.50;;;9.60;;
32876;SDS011;19226;51.600;8.034;2023-04-30T06:51:35;19.83;;;8.95;;
32876;SDS011;19226;51.600;8.034;2023-04-30T06:54:19;13.38;;;8.85;;
32876;SDS011;19226;51.600;8.034;2023-04-30T06:57:05;12.52;;;9.00;;
32876;SDS011;19226;51.600;8.034;2023-04-30T06:59:50;18.20;;;10.60;;
32876;SDS011;19226;51.600;8.034;2023-04-30T07:02:34;11.73;;;8.77;;
32876;SDS011;19226;51.600;8.034;2023-04-30T07:05:19;17.45;;;9.27;;
32876;SDS011;19226;51.600;8.034;2023-04-30T07:08:04;13.38;;;8.75;;
32876;SDS011;19226;51.600;8.034;2023-04-30T07:10:49;14.98;;;9.07;;
32876;SDS011;19226;51.600;8.034;2023-04-30T07:13:34;12.80;;;7.40;;
32876;SDS011;19226;51.600;8.034;2023-04-30T07:16:18;12.20;;;8.52;;
32876;SDS011;19226;51.600;8.034;2023-04-30T07:19:03;14.38;;;7.80;;
32876;SDS011;19226;51.600;8.034;2023-04-30T07:21:48;9.90;;;7.63;;
32876;SDS011;19226;51.600;8.034;2023-04-30T07:24:32;13.27;;;7.00;;
32876;SDS011;19226;51.600;8.034;2023-04-30T07:27:17;17.58;;;7.32;;
32876;SDS011;19226;51.600;8.034;2023-04-30T07:30:02;8.35;;;6.45;;
32876;SDS011;19226;51.600;8.034;2023-04-30T07:32:47;13.48;;;6.05;;
32876;SDS011;19226;51.600;8.034;2023-04-30T07:35:32;8.27;;;5.82;;
32876;SDS011;19226;51.600;8.034;2023-04-30T07:38:16;11.35;;;6.10;;
32876;SDS011;19226;51.600;8.034;2023-04-30T07:41:01;10.77;;;5.82;;
32876;SDS011;19226;51.600;8.034;2023-04-30T07:43:46;12.25;;;5.80;;
32876;SDS011;19226;51.600;8.034;2023-04-30T07:46:30;14.65;;;6.75;;
32876;SDS011;19226;51.600;8.034;2023-04-30T07:49:15;7.47;;;6.15;;
32876;SDS011;19226;51.600;8.034;2023-04-30T07:51:59;7.50;;;6.25;;
32876;SDS011;19226;51.600;8.034;2023-04-30T07:54:44;13.73;;;6.28;;
32876;SDS011;19226;51.600;8.034;2023-04-30T07:57:28;10.98;;;6.07;;
32876;SDS011;19226;51.600;8.034;2023-04-30T08:00:13;14.57;;;5.90;;
32876;SDS011;19226;51.600;8.034;2023-04-30T08:02:58;9.90;;;4.82;;
32876;SDS011;19226;51.600;8.034;2023-04-30T08:05:43;11.07;;;5.20;;
32876;SDS011;19226;51.600;8.034;2023-04-30T08:08:28;7.55;;;5.32;;
32876;SDS011;19226;51.600;8.034;2023-04-30T08:11:13;12.90;;;5.18;;
32876;SDS011;19226;51.600;8.034;2023-04-30T08:13:59;11.60;;;5.30;;
32876;SDS011;19226;51.600;8.034;2023-04-30T08:16:43;11.93;;;5.65;;
32876;SDS011;19226;51.600;8.034;2023-04-30T08:19:28;8.57;;;5.50;;
32876;SDS011;19226;51.600;8.034;2023-04-30T08:22:12;16.45;;;5.82;;
32876;SDS011;19226;51.600;8.034;2023-04-30T08:24:57;5.03;;;4.35;;
32876;SDS011;19226;51.600;8.034;2023-04-30T08:27:44;6.43;;;4.80;;
32876;SDS011;19226;51.600;8.034;2023-04-30T08:30:29;8.75;;;4.88;;
32876;SDS011;19226;51.600;8.034;2023-04-30T08:33:13;5.15;;;4.47;;
32876;SDS011;19226;51.600;8.034;2023-04-30T08:35:58;12.30;;;5.95;;
32876;SDS011;19226;51.600;8.034;2023-04-30T08:38:42;9.88;;;4.40;;
32876;SDS011;19226;51.600;8.034;2023-04-30T08:41:29;10.68;;;4.40;;
32876;SDS011;19226;51.600;8.034;2023-04-30T08:44:17;8.73;;;4.30;;
32876;SDS011;19226;51.600;8.034;2023-04-30T08:47:04;7.13;;;4.13;;
32876;SDS011;19226;51.600;8.034;2023-04-30T08:49:51;7.28;;;3.60;;
32876;SDS011;19226;51.600;8.034;2023-04-30T08:52:36;7.47;;;4.32;;
32876;SDS011;19226;51.600;8.034;2023-04-30T08:55:26;9.27;;;4.50;;
32876;SDS011;19226;51.600;8.034;2023-04-30T08:58:11;8.63;;;5.00;;
32876;SDS011;19226;51.600;8.034;2023-04-30T09:00:59;6.82;;;4.20;;
32876;SDS011;19226;51.600;8.034;2023-04-30T09:03:45;6.00;;;4.40;;
32876;SDS011;19226;51.600;8.034;2023-04-30T09:06:29;5.50;;;4.10;;
32876;SDS011;19226;51.600;8.034;2023-04-30T09:09:15;10.60;;;4.15;;
32876;SDS011;19226;51.600;8.034;2023-04-30T09:12:15;10.95;;;4.75;;
32876;SDS011;19226;51.600;8.034;2023-04-30T09:15:04;7.22;;;4.28;;
32876;SDS011;19226;51.600;8.034;2023-04-30T09:18:08;10.95;;;4.95;;
32876;SDS011;19226;51.600;8.034;2023-04-30T09:20:56;9.43;;;4.53;;
32876;SDS011;19226;51.600;8.034;2023-04-30T09:27:14;15.88;;;4.97;;
32876;SDS011;19226;51.600;8.034;2023-04-30T09:29:59;11.10;;;5.20;;
32876;SDS011;19226;51.600;8.034;2023-04-30T09:32:54;7.53;;;4.90;;
32876;SDS011;19226;51.600;8.034;2023-04-30T09:35:39;5.50;;;4.50;;
32876;SDS011;19226;51.600;8.034;2023-04-30T09:38:30;9.32;;;4.72;;
32876;SDS011;19226;51.600;8.034;2023-04-30T09:44:07;9.48;;;4.38;;
32876;SDS011;19226;51.600;8.034;2023-04-30T09:47:10;6.32;;;3.88;;
32876;SDS011;19226;51.600;8.034;2023-04-30T09:50:01;5.53;;;3.88;;
32876;SDS011;19226;51.600;8.034;2023-04-30T09:52:51;6.78;;;3.85;;
32876;SDS011;19226;51.600;8.034;2023-04-30T09:55:36;5.60;;;4.13;;
32876;SDS011;19226;51.600;8.034;2023-04-30T09:58:24;7.20;;;3.88;;
32876;SDS011;19226;51.600;8.034;2023-04-30T10:01:11;10.73;;;4.30;;
32876;SDS011;19226;51.600;8.034;2023-04-30T10:03:55;8.15;;;3.53;;
32876;SDS011;19226;51.600;8.034;2023-04-30T10:06:41;6.13;;;3.60;;
32876;SDS011;19226;51.600;8.034;2023-04-30T10:09:27;5.05;;;3.67;;
32876;SDS011;19226;51.600;8.034;2023-04-30T10:12:23;5.22;;;3.58;;
32876;SDS011;19226;51.600;8.034;2023-04-30T10:18:36;7.97;;;3.85;;
32876;SDS011;19226;51.600;8.034;2023-04-30T10:21:23;7.20;;;4.00;;
32876;SDS011;19226;51.600;8.034;2023-04-30T10:24:11;8.18;;;3.63;;
32876;SDS011;19226;51.600;8.034;2023-04-30T10:26:57;6.95;;;3.22;;
32876;SDS011;19226;51.600;8.034;2023-04-30T10:29:41;6.53;;;3.35;;
32876;SDS011;19226;51.600;8.034;2023-04-30T10:32:29;6.50;;;3.58;;
32876;SDS011;19226;51.600;8.034;2023-04-30T10:35:21;3.15;;;2.58;;
32876;SDS011;19226;51.600;8.034;2023-04-30T10:41:15;6.57;;;2.85;;
32876;SDS011;19226;51.600;8.034;2023-04-30T10:44:03;11.98;;;2.90;;
32876;SDS011;19226;51.600;8.034;2023-04-30T10:46:57;4.32;;;2.30;;
32876;SDS011;19226;51.600;8.034;2023-04-30T10:49:47;3.13;;;2.28;;
32876;SDS011;19226;51.600;8.034;2023-04-30T10:55:17;8.35;;;3.42;;
32876;SDS011;19226;51.600;8.034;2023-04-30T10:58:02;6.38;;;3.45;;
32876;SDS011;19226;51.600;8.034;2023-04-30T11:01:17;5.15;;;2.85;;
32876;SDS011;19226;51.600;8.034;2023-04-30T11:04:09;4.97;;;3.17;;
32876;SDS011;19226;51.600;8.034;2023-04-30T11:06:55;8.57;;;3.72;;
32876;SDS011;19226;51.600;8.034;2023-04-30T11:09:55;3.00;;;2.70;;
32876;SDS011;19226;51.600;8.034;2023-04-30T11:12:40;5.82;;;3.15;;
32876;SDS011;19226;51.600;8.034;2023-04-30T11:15:32;5.85;;;2.80;;
32876;SDS011;19226;51.600;8.034;2023-04-30T11:18:22;7.45;;;2.50;;
32876;SDS011;19226;51.600;8.034;2023-04-30T11:21:10;4.10;;;2.63;;
32876;SDS011;19226;51.600;8.034;2023-04-30T11:24:01;8.13;;;3.20;;
32876;SDS011;19226;51.600;8.034;2023-04-30T11:27:10;4.05;;;2.97;;
32876;SDS011;19226;51.600;8.034;2023-04-30T11:29:56;5.32;;;2.80;;
32876;SDS011;19226;51.600;8.034;2023-04-30T11:32:45;4.18;;;3.13;;
32876;SDS011;19226;51.600;8.034;2023-04-30T11:35:32;5.45;;;3.03;;
32876;SDS011;19226;51.600;8.034;2023-04-30T11:38:18;7.60;;;3.33;;
32876;SDS011;19226;51.600;8.034;2023-04-30T11:41:05;3.60;;;2.72;;
32876;SDS011;19226;51.600;8.034;2023-04-30T11:43:50;9.60;;;3.15;;
32876;SDS011;19226;51.600;8.034;2023-04-30T11:46:34;3.33;;;2.90;;
32876;SDS011;19226;51.600;8.034;2023-04-30T11:49:19;4.68;;;3.00;;
32876;SDS011;19226;51.600;8.034;2023-04-30T11:52:03;3.22;;;2.17;;
32876;SDS011;19226;51.600;8.034;2023-04-30T11:54:48;4.78;;;2.30;;
32876;SDS011;19226;51.600;8.034;2023-04-30T11:57:42;5.75;;;2.53;;
32876;SDS011;19226;51.600;8.034;2023-04-30T12:00:29;3.78;;;2.65;;
32876;SDS011;19226;51.600;8.034;2023-04-30T12:03:14;7.53;;;2.80;;
32876;SDS011;19226;51.600;8.034;2023-04-30T12:06:00;4.65;;;2.47;;
32876;SDS011;19226;51.600;8.034;2023-04-30T12:08:45;5.00;;;2.40;;
32876;SDS011;19226;51.600;8.034;2023-04-30T12:11:30;2.65;;;1.80;;
32876;SDS011;19226;51.600;8.034;2023-04-30T12:14:15;4.00;;;2.30;;
32876;SDS011;19226;51.600;8.034;2023-04-30T12:16:59;2.25;;;1.85;;
32876;SDS011;19226;51.600;8.034;2023-04-30T12:19:44;4.53;;;2.40;;
32876;SDS011;19226;51.600;8.034;2023-04-30T12:22:29;4.32;;;2.20;;
32876;SDS011;19226;51.600;8.034;2023-04-30T12:25:14;6.75;;;2.03;;
32876;SDS011;19226;51.600;8.034;2023-04-30T12:28:01;7.88;;;3.13;;
32876;SDS011;19226;51.600;8.034;2023-04-30T12:30:45;5.53;;;2.40;;
32876;SDS011;19226;51.600;8.034;2023-04-30T12:33:30;4.20;;;2.30;;
32876;SDS011;19226;51.600;8.034;2023-04-30T12:36:15;2.88;;;2.25;;
32876;SDS011;19226;51.600;8.034;2023-04-30T12:39:00;6.45;;;2.25;;
32876;SDS011;19226;51.600;8.034;2023-04-30T12:41:46;5.18;;;2.47;;
32876;SDS011;19226;51.600;8.034;2023-04-30T12:44:32;4.03;;;1.85;;
32876;SDS011;19226;51.600;8.034;2023-04-30T12:47:28;7.20;;;1.90;;
32876;SDS011;19226;51.600;8.034;2023-04-30T12:50:13;5.18;;;1.85;;
32876;SDS011;19226;51.600;8.034;2023-04-30T12:53:00;5.82;;;2.40;;
32876;SDS011;19226;51.600;8.034;2023-04-30T12:58:52;3.45;;;1.13;;
32876;SDS011;19226;51.600;8.034;2023-04-30T13:01:43;2.80;;;1.35;;
32876;SDS011;19226;51.600;8.034;2023-04-30T13:04:29;3.97;;;1.23;;
32876;SDS011;19226;51.600;8.034;2023-04-30T13:07:14;1.95;;;0.88;;
32876;SDS011;19226;51.600;8.034;2023-04-30T13:09:58;3.55;;;0.98;;
32876;SDS011;19226;51.600;8.034;2023-04-30T13:12:43;2.88;;;0.90;;
32876;SDS011;19226;51.600;8.034;2023-04-30T13:15:28;3.28;;;0.80;;
32876;SDS011;19226;51.600;8.034;2023-04-30T13:18:13;1.52;;;0.70;;
32876;SDS011;19226;51.600;8.034;2023-04-30T13:21:01;5.10;;;1.40;;
32876;SDS011;19226;51.600;8.034;2023-04-30T13:23:45;2.95;;;1.02;;
32876;SDS011;19226;51.600;8.034;2023-04-30T13:26:30;4.57;;;1.10;;
32876;SDS011;19226;51.600;8.034;2023-04-30T13:29:15;1.15;;;0.95;;
32876;SDS011;19226;51.600;8.034;2023-04-30T13:31:59;3.22;;;1.27;;
32876;SDS011;19226;51.600;8.034;2023-04-30T13:34:44;2.55;;;0.82;;
32876;SDS011;19226;51.600;8.034;2023-04-30T13:37:28;2.65;;;1.10;;
32876;SDS011;19226;51.600;8.034;2023-04-30T13:40:14;3.40;;;0.85;;
32876;SDS011;19226;51.600;8.034;2023-04-30T13:42:59;3.03;;;0.90;;
32876;SDS011;19226;51.600;8.034;2023-04-30T13:45:44;2.65;;;0.90;;
32876;SDS011;19226;51.600;8.034;2023-04-30T13:48:28;2.40;;;0.95;;
32876;SDS011;19226;51.600;8.034;2023-04-30T13:51:13;5.10;;;0.75;;
32876;SDS011;19226;51.600;8.034;2023-04-30T13:53:57;3.05;;;1.17;;
32876;SDS011;19226;51.600;8.034;2023-04-30T13:56:42;1.92;;;0.70;;
32876;SDS011;19226;51.600;8.034;2023-04-30T13:59:26;3.85;;;1.00;;
32876;SDS011;19226;51.600;8.034;2023-04-30T14:02:11;4.55;;;0.88;;
32876;SDS011;19226;51.600;8.034;2023-04-30T14:04:55;3.00;;;0.88;;
32876;SDS011;19226;51.600;8.034;2023-04-30T14:07:42;3.75;;;0.73;;
32876;SDS011;19226;51.600;8.034;2023-04-30T14:10:27;4.75;;;1.00;;
32876;SDS011;19226;51.600;8.034;2023-04-30T14:13:11;2.58;;;1.00;;
32876;SDS011;19226;51.600;8.034;2023-04-30T14:15:56;2.22;;;0.63;;
32876;SDS011;19226;51.600;8.034;2023-04-30T14:18:40;2.00;;;0.70;;
32876;SDS011;19226;51.600;8.034;2023-04-30T14:21:25;2.22;;;0.68;;
32876;SDS011;19226;51.600;8.034;2023-04-30T14:24:11;7.93;;;0.82;;
32876;SDS011;19226;51.600;8.034;2023-04-30T14:26:56;3.75;;;1.00;;
32876;SDS011;19226;51.600;8.034;2023-04-30T14:29:42;2.78;;;0.80;;
32876;SDS011;19226;51.600;8.034;2023-04-30T14:32:27;3.20;;;0.95;;
32876;SDS011;19226;51.600;8.034;2023-04-30T14:35:11;2.47;;;0.80;;
32876;SDS011;19226;51.600;8.034;2023-04-30T14:37:56;1.60;;;0.57;;
32876;SDS011;19226;51.600;8.034;2023-04-30T14:40:42;2.00;;;0.85;;
32876;SDS011;19226;51.600;8.034;2023-04-30T14:43:26;1.38;;;0.73;;
32876;SDS011;19226;51.600;8.034;2023-04-30T14:46:11;6.10;;;1.13;;
32876;SDS011;19226;51.600;8.034;2023-04-30T14:48:56;3.63;;;0.50;;
32876;SDS011;19226;51.600;8.034;2023-04-30T14:51:40;3.47;;;1.25;;
32876;SDS011;19226;51.600;8.034;2023-04-30T14:54:24;3.78;;;0.60;;
32876;SDS011;19226;51.600;8.034;2023-04-30T14:57:09;3.15;;;0.77;;
32876;SDS011;19226;51.600;8.034;2023-04-30T14:59:53;1.38;;;0.77;;
32876;SDS011;19226;51.600;8.034;2023-04-30T15:02:40;1.02;;;0.80;;
32876;SDS011;19226;51.600;8.034;2023-04-30T15:05:24;2.63;;;0.75;;
32876;SDS011;19226;51.600;8.034;2023-04-30T15:08:09;1.63;;;0.80;;
32876;SDS011;19226;51.600;8.034;2023-04-30T15:10:54;3.85;;;0.90;;
32876;SDS011;19226;51.600;8.034;2023-04-30T15:13:39;3.67;;;0.60;;
32876;SDS011;19226;51.600;8.034;2023-04-30T15:16:24;3.70;;;1.58;;
32876;SDS011;19226;51.600;8.034;2023-04-30T15:19:09;4.80;;;1.35;;
32876;SDS011;19226;51.600;8.034;2023-04-30T15:21:53;5.28;;;0.90;;
32876;SDS011;19226;51.600;8.034;2023-04-30T15:24:38;2.15;;;0.68;;
32876;SDS011;19226;51.600;8.034;2023-04-30T15:27:22;2.58;;;0.70;;
32876;SDS011;19226;51.600;8.034;2023-04-30T15:30:07;1.42;;;0.60;;
32876;SDS011;19226;51.600;8.034;2023-04-30T15:32:52;2.85;;;0.90;;
32876;SDS011;19226;51.600;8.034;2023-04-30T15:35:36;2.65;;;1.23;;
32876;SDS011;19226;51.600;8.034;2023-04-30T15:38:21;1.98;;;0.70;;
32876;SDS011;19226;51.600;8.034;2023-04-30T15:41:06;4.18;;;0.60;;
32876;SDS011;19226;51.600;8.034;2023-04-30T15:43:50;2.92;;;0.85;;
32876;SDS011;19226;51.600;8.034;2023-04-30T15:46:35;1.77;;;0.98;;
32876;SDS011;19226;51.600;8.034;2023-04-30T15:49:19;2.33;;;0.73;;
32876;SDS011;19226;51.600;8.034;2023-04-30T15:52:05;1.83;;;0.50;;
32876;SDS011;19226;51.600;8.034;2023-04-30T15:54:50;5.70;;;1.35;;
32876;SDS011;19226;51.600;8.034;2023-04-30T15:57:35;4.10;;;1.13;;
32876;SDS011;19226;51.600;8.034;2023-04-30T16:00:19;1.33;;;0.70;;
32876;SDS011;19226;51.600;8.034;2023-04-30T16:03:06;2.15;;;0.80;;
32876;SDS011;19226;51.600;8.034;2023-04-30T16:05:50;4.43;;;0.80;;
32876;SDS011;19226;51.600;8.034;2023-04-30T16:08:35;3.55;;;0.80;;
32876;SDS011;19226;51.600;8.034;2023-04-30T16:11:20;7.95;;;1.00;;
32876;SDS011;19226;51.600;8.034;2023-04-30T16:14:07;2.55;;;0.57;;
32876;SDS011;19226;51.600;8.034;2023-04-30T16:16:51;2.63;;;1.00;;
32876;SDS011;19226;51.600;8.034;2023-04-30T16:19:36;1.83;;;0.82;;
32876;SDS011;19226;51.600;8.034;2023-04-30T16:22:20;2.92;;;0.90;;
32876;SDS011;19226;51.600;8.034;2023-04-30T16:25:06;1.48;;;0.75;;
32876;SDS011;19226;51.600;8.034;2023-04-30T16:27:52;3.13;;;1.10;;
32876;SDS011;19226;51.600;8.034;2023-04-30T16:30:37;3.03;;;1.00;;
32876;SDS011;19226;51.600;8.034;2023-04-30T16:33:21;1.63;;;0.80;;
32876;SDS011;19226;51.600;8.034;2023-04-30T16:36:07;2.35;;;1.00;;
32876;SDS011;19226;51.600;8.034;2023-04-30T16:38:52;2.65;;;1.00;;
32876;SDS011;19226;51.600;8.034;2023-04-30T16:41:37;2.58;;;1.10;;
32876;SDS011;19226;51.600;8.034;2023-04-30T16:44:21;0.80;;;0.80;;
32876;SDS011;19226;51.600;8.034;2023-04-30T16:47:06;4.35;;;1.00;;
32876;SDS011;19226;51.600;8.034;2023-04-30T16:49:51;3.78;;;0.80;;
32876;SDS011;19226;51.600;8.034;2023-04-30T16:52:36;2.92;;;0.80;;
32876;SDS011;19226;51.600;8.034;2023-04-30T16:55:21;2.90;;;0.77;;
32876;SDS011;19226;51.600;8.034;2023-04-30T16:58:06;4.03;;;1.75;;
32876;SDS011;19226;51.600;8.034;2023-04-30T17:00:51;2.00;;;1.00;;
32876;SDS011;19226;51.600;8.034;2023-04-30T17:03:38;7.35;;;1.00;;